createdAt,value
2023-03-27T00:01:01.608Z,99794.59
2023-03-27T00:03:28.728Z,99807.06
2023-03-27T00:05:55.132Z,99811.53
2023-03-27T00:08:21.446Z,99816.16
2023-03-27T00:10:47.879Z,99820.06
2023-03-27T00:13:14.297Z,99816.16
2023-03-27T00:15:40.729Z,99821.50
2023-03-27T00:18:07.510Z,99827.97
2023-03-27T00:20:34.631Z,99821.44
2023-03-27T00:23:01.853Z,99822.75
2023-03-27T00:25:28.587Z,99820.31
2023-03-27T00:27:54.866Z,99830.88
2023-03-27T00:30:21.233Z,99830.56
2023-03-27T00:32:47.737Z,99830.03
2023-03-27T00:35:14.159Z,99839.75
2023-03-27T00:37:40.529Z,99839.38
2023-03-27T00:40:06.950Z,99839.28
2023-03-27T00:42:33.331Z,99847.25
2023-03-27T00:44:59.729Z,99843.19
2023-03-27T00:47:26.280Z,99847.53
2023-03-27T00:49:52.805Z,99844.31
2023-03-27T00:52:19.068Z,99841.88
2023-03-27T00:54:45.752Z,99840.00
2023-03-27T00:57:12.806Z,99845.88
2023-03-27T00:59:39.494Z,99843.00
2023-03-27T01:02:05.848Z,99844.25
2023-03-27T01:04:32.637Z,99843.09
2023-03-27T01:07:02.902Z,99841.63
2023-03-27T01:09:30.058Z,99840.59
2023-03-27T01:11:56.318Z,99844.84
2023-03-27T01:14:23.158Z,99856.88
2023-03-27T01:16:49.833Z,99857.44
2023-03-27T01:19:17.306Z,99862.25
2023-03-27T01:21:43.972Z,99867.69
2023-03-27T01:24:10.474Z,99861.81
2023-03-27T01:26:37.317Z,99871.09
2023-03-27T01:29:03.761Z,99876.88
2023-03-27T01:31:30.156Z,99875.09
2023-03-27T01:33:56.705Z,99889.59
2023-03-27T01:36:23.020Z,99893.06
2023-03-27T01:38:49.420Z,99891.56
2023-03-27T01:41:16.241Z,99901.50
2023-03-27T01:43:42.921Z,99902.50
2023-03-27T01:46:09.368Z,99907.88
2023-03-27T01:48:35.702Z,99918.63
2023-03-27T01:51:02.096Z,99922.69
2023-03-27T01:53:28.591Z,99927.06
2023-03-27T01:55:54.926Z,99931.28
2023-03-27T01:58:21.236Z,99933.19
2023-03-27T02:01:04.081Z,99933.97
2023-03-27T02:03:30.522Z,99935.81
2023-03-27T02:05:56.885Z,99931.16
2023-03-27T02:08:23.886Z,99935.16
2023-03-27T02:10:50.277Z,99934.91
2023-03-27T02:13:16.588Z,99932.88
2023-03-27T02:15:43.084Z,99943.03
2023-03-27T02:18:09.818Z,99948.34
2023-03-27T02:20:36.812Z,99951.28
2023-03-27T02:23:03.416Z,99951.28
2023-03-27T02:25:29.975Z,99949.06
2023-03-27T02:27:57.076Z,99956.88
2023-03-27T02:30:23.402Z,99971.38
2023-03-27T02:32:50.186Z,99972.22
2023-03-27T02:35:16.804Z,99958.78
2023-03-27T02:37:43.211Z,99974.31
2023-03-27T02:40:09.635Z,99983.75
2023-03-27T02:42:36.119Z,99990.50
2023-03-27T02:45:02.536Z,99994.81
2023-03-27T02:47:29.087Z,99997.75
2023-03-27T02:49:55.418Z,100005.81
2023-03-27T02:52:21.877Z,100015.41
2023-03-27T02:54:48.267Z,100011.09
2023-03-27T02:57:14.778Z,100028.03
2023-03-27T02:59:41.329Z,100025.56
2023-03-27T03:02:07.859Z,100026.88
2023-03-27T03:04:34.509Z,100033.31
2023-03-27T03:07:00.844Z,100035.19
2023-03-27T03:09:27.154Z,100046.75
2023-03-27T03:11:53.867Z,100051.28
2023-03-27T03:14:20.697Z,100052.03
2023-03-27T03:16:47.604Z,100048.03
2023-03-27T03:19:14.104Z,100062.03
2023-03-27T03:21:40.438Z,100068.16
2023-03-27T03:24:06.805Z,100077.50
2023-03-27T03:26:33.131Z,100077.59
2023-03-27T03:29:00.627Z,100086.59
2023-03-27T03:31:28.537Z,100088.88
2023-03-27T03:33:55.758Z,100097.38
2023-03-27T03:36:22.077Z,100096.72
2023-03-27T03:38:48.444Z,100097.53
2023-03-27T03:41:15.464Z,100101.69
2023-03-27T03:43:42.022Z,100108.75
2023-03-27T03:46:08.803Z,100106.06
2023-03-27T03:48:35.336Z,100119.88
2023-03-27T03:51:02.411Z,100123.16
2023-03-27T03:53:29.291Z,100127.69
2023-03-27T03:55:55.716Z,100130.47
2023-03-27T03:58:22.162Z,100130.94
2023-03-27T04:01:01.459Z,100135.63
2023-03-27T04:03:28.083Z,100143.09
2023-03-27T04:05:55.006Z,100144.38
2023-03-27T04:08:21.336Z,100148.63
2023-03-27T04:10:47.716Z,100146.66
2023-03-27T04:13:14.460Z,100152.56
2023-03-27T04:15:40.809Z,100151.19
2023-03-27T04:18:07.511Z,100154.59
2023-03-27T04:20:33.999Z,100160.44
2023-03-27T04:23:00.297Z,100176.28
2023-03-27T04:25:27.016Z,100177.00
2023-03-27T04:27:53.632Z,100183.41
2023-03-27T04:30:20.684Z,100189.59
2023-03-27T04:32:47.839Z,100202.19
2023-03-27T04:35:14.288Z,100196.50
2023-03-27T04:37:41.046Z,100210.41
2023-03-27T04:40:07.380Z,100212.06
2023-03-27T04:42:34.073Z,100218.78
2023-03-27T04:45:00.992Z,100218.50
2023-03-27T04:47:27.767Z,100221.28
2023-03-27T04:49:54.147Z,100234.00
2023-03-27T04:52:20.508Z,100235.03
2023-03-27T04:54:47.197Z,100234.63
2023-03-27T04:57:13.983Z,100242.06
2023-03-27T04:59:40.519Z,100245.47
2023-03-27T05:02:07.272Z,100255.28
2023-03-27T05:04:33.713Z,100252.00
2023-03-27T05:07:00.141Z,100263.44
2023-03-27T05:09:27.138Z,100264.25
2023-03-27T05:11:53.770Z,100272.34
2023-03-27T05:14:20.421Z,100274.31
2023-03-27T05:16:46.908Z,100280.84
2023-03-27T05:19:13.995Z,100295.59
2023-03-27T05:21:40.413Z,100299.09
2023-03-27T05:24:07.648Z,100298.03
2023-03-27T05:26:34.074Z,100307.84
2023-03-27T05:29:00.765Z,100315.13
2023-03-27T05:31:27.632Z,100320.94
2023-03-27T05:33:54.175Z,100323.59
2023-03-27T05:36:20.565Z,100325.94
2023-03-27T05:38:47.468Z,100324.88
2023-03-27T05:41:13.846Z,100331.19
2023-03-27T05:43:40.195Z,100336.91
2023-03-27T05:46:07.275Z,100333.06
2023-03-27T05:48:33.653Z,100342.16
2023-03-27T05:51:00.087Z,100343.00
2023-03-27T05:53:27.972Z,100342.75
2023-03-27T05:56:02.937Z,100346.31
2023-03-27T05:58:30.124Z,100355.25
2023-03-27T06:00:56.820Z,100349.78
2023-03-27T06:03:23.420Z,100355.28
2023-03-27T06:05:49.857Z,100366.16
2023-03-27T06:08:16.274Z,100361.69
2023-03-27T06:10:42.978Z,100360.50
2023-03-27T06:13:09.563Z,100377.13
2023-03-27T06:15:36.014Z,100380.16
2023-03-27T06:18:02.394Z,100392.53
2023-03-27T06:20:28.976Z,100394.22
2023-03-27T06:22:55.442Z,100397.88
2023-03-27T06:25:21.845Z,100407.75
2023-03-27T06:27:48.856Z,100410.00
2023-03-27T06:30:15.239Z,100409.50
2023-03-27T06:32:41.704Z,100414.63
2023-03-27T06:35:08.103Z,100418.34
2023-03-27T06:37:34.569Z,100417.06
2023-03-27T06:40:01.040Z,100422.75
2023-03-27T06:42:27.457Z,100427.81
2023-03-27T06:44:53.827Z,100430.72
2023-03-27T06:47:20.279Z,100434.56
2023-03-27T06:49:47.045Z,100433.41
2023-03-27T06:52:13.406Z,100443.31
2023-03-27T06:54:40.489Z,100444.88
2023-03-27T06:57:07.217Z,100444.59
2023-03-27T06:59:33.555Z,100444.03
2023-03-27T07:02:00.319Z,100450.56
2023-03-27T07:04:27.079Z,100446.09
2023-03-27T07:06:53.405Z,100445.88
2023-03-27T07:09:19.886Z,100438.44
2023-03-27T07:11:46.233Z,100438.22
2023-03-27T07:14:13.015Z,100446.50
2023-03-27T07:16:39.748Z,100441.13
2023-03-27T07:19:06.648Z,100445.09
2023-03-27T07:21:32.972Z,100450.81
2023-03-27T07:23:59.653Z,100455.13
2023-03-27T07:26:27.203Z,100457.78
2023-03-27T07:28:53.729Z,100470.63
2023-03-27T07:31:33.008Z,100466.69
2023-03-27T07:34:06.632Z,100468.72
2023-03-27T07:36:33.200Z,100474.19
2023-03-27T07:38:59.829Z,100469.50
2023-03-27T07:41:26.376Z,100470.56
2023-03-27T07:43:52.803Z,100468.16
2023-03-27T07:46:19.159Z,100466.38
2023-03-27T07:48:45.618Z,100469.50
2023-03-27T07:51:14.249Z,100471.41
2023-03-27T07:53:40.766Z,100483.16
2023-03-27T07:56:07.692Z,100477.53
2023-03-27T07:58:34.292Z,100476.50
2023-03-27T08:01:00.614Z,100485.38
2023-03-27T08:03:27.331Z,100489.09
2023-03-27T08:05:54.267Z,100489.78
2023-03-27T08:08:20.849Z,100492.50
2023-03-27T08:10:47.713Z,100499.50
2023-03-27T08:13:14.064Z,100490.88
2023-03-27T08:15:40.453Z,100502.66
2023-03-27T08:18:07.249Z,100502.19
2023-03-27T08:20:33.706Z,100504.78
2023-03-27T08:23:00.114Z,100498.47
2023-03-27T08:25:26.717Z,100501.38
2023-03-27T08:27:53.117Z,100497.63
2023-03-27T08:30:19.470Z,100494.28
2023-03-27T08:32:45.798Z,100496.09
2023-03-27T08:35:12.464Z,100497.41
2023-03-27T08:37:39.054Z,100502.34
2023-03-27T08:40:05.397Z,100508.34
2023-03-27T08:42:31.786Z,100501.59
2023-03-27T08:44:58.126Z,100510.22
2023-03-27T08:47:24.721Z,100511.94
2023-03-27T08:49:51.486Z,100523.44
2023-03-27T08:52:18.008Z,100519.97
2023-03-27T08:54:44.336Z,100521.56
2023-03-27T08:57:10.939Z,100518.38
2023-03-27T08:59:37.439Z,100512.91
2023-03-27T09:02:03.891Z,100520.38
2023-03-27T09:04:30.383Z,100518.50
2023-03-27T09:06:56.889Z,100522.72
2023-03-27T09:09:23.233Z,100526.56
2023-03-27T09:11:49.817Z,100524.94
2023-03-27T09:14:16.171Z,100520.38
2023-03-27T09:16:42.565Z,100521.66
2023-03-27T09:19:09.569Z,100531.44
2023-03-27T09:21:36.029Z,100533.88
2023-03-27T09:24:02.406Z,100531.28
2023-03-27T09:26:28.920Z,100532.25
2023-03-27T09:28:55.218Z,100537.88
2023-03-27T09:31:21.817Z,100539.50
2023-03-27T09:33:48.265Z,100534.31
2023-03-27T09:36:14.824Z,100543.59
2023-03-27T09:38:41.366Z,100550.63
2023-03-27T09:41:07.998Z,100545.34
2023-03-27T09:43:34.506Z,100551.47
2023-03-27T09:46:00.938Z,100545.88
2023-03-27T09:48:27.297Z,100549.19
2023-03-27T09:50:54.030Z,100550.78
2023-03-27T09:53:20.469Z,100541.75
2023-03-27T09:55:46.771Z,100552.28
2023-03-27T09:58:13.376Z,100548.75
2023-03-27T10:00:39.753Z,100554.84
2023-03-27T10:03:06.452Z,100557.84
2023-03-27T10:05:33.040Z,100561.38
2023-03-27T10:07:59.327Z,100566.44
2023-03-27T10:10:25.674Z,100559.59
2023-03-27T10:15:42.891Z,100556.94
2023-03-27T10:18:09.310Z,100560.34
2023-03-27T10:20:35.782Z,100562.81
2023-03-27T10:23:02.296Z,100568.63
2023-03-27T10:25:28.706Z,100564.97
2023-03-27T10:27:55.114Z,100563.66
2023-03-27T10:30:21.640Z,100567.13
2023-03-27T10:32:48.212Z,100567.97
2023-03-27T10:35:14.961Z,100567.13
2023-03-27T10:37:41.361Z,100570.94
2023-03-27T10:40:16.682Z,100578.69
2023-03-27T10:42:43.311Z,100570.88
2023-03-27T10:45:09.859Z,100566.50
2023-03-27T10:47:36.822Z,100573.94
2023-03-27T10:50:03.213Z,100570.81
2023-03-27T10:52:29.544Z,100575.13
2023-03-27T10:54:55.882Z,100580.56
2023-03-27T10:57:22.308Z,100568.19
2023-03-27T10:59:48.856Z,100576.75
2023-03-27T11:02:15.329Z,100583.81
2023-03-27T11:04:41.677Z,100582.50
2023-03-27T11:07:08.023Z,100589.72
2023-03-27T11:09:34.735Z,100586.81
2023-03-27T11:12:01.228Z,100587.94
2023-03-27T11:14:27.627Z,100604.75
2023-03-27T11:16:54.322Z,100607.31
2023-03-27T11:19:20.613Z,100609.19
2023-03-27T11:21:46.913Z,100600.16
2023-03-27T11:24:13.211Z,100598.75
2023-03-27T11:26:39.551Z,100609.91
2023-03-27T11:29:05.914Z,100611.41
2023-03-27T11:31:32.457Z,100601.19
2023-03-27T11:33:59.248Z,100617.44
2023-03-27T11:36:25.576Z,100626.16
2023-03-27T11:38:52.102Z,100629.66
2023-03-27T11:41:18.441Z,100629.06
2023-03-27T11:43:46.098Z,100628.19
2023-03-27T11:46:12.677Z,100631.66
2023-03-27T11:48:39.190Z,100630.41
2023-03-27T11:51:05.540Z,100631.44
2023-03-27T11:53:32.050Z,100635.53
2023-03-27T11:55:58.681Z,100647.47
2023-03-27T11:58:25.373Z,100655.53
2023-03-27T12:00:51.931Z,100646.56
2023-03-27T12:03:18.467Z,100647.03
2023-03-27T12:05:45.209Z,100643.53
2023-03-27T12:08:11.545Z,100643.16
2023-03-27T12:10:37.894Z,100640.91
2023-03-27T12:13:04.224Z,100644.84
2023-03-27T12:15:31.046Z,100651.00
2023-03-27T12:17:57.979Z,100649.16
2023-03-27T12:20:24.733Z,100654.09
2023-03-27T12:22:51.956Z,100660.66
2023-03-27T12:25:18.643Z,100653.69
2023-03-27T12:27:45.366Z,100657.44
2023-03-27T12:30:11.805Z,100656.63
2023-03-27T12:32:38.153Z,100656.00
2023-03-27T12:35:04.848Z,100655.78
2023-03-27T12:37:31.320Z,100650.50
2023-03-27T12:39:57.689Z,100654.22
2023-03-27T12:42:24.215Z,100659.53
2023-03-27T12:44:50.591Z,100650.72
2023-03-27T12:47:17.260Z,100652.63
2023-03-27T12:49:47.758Z,100662.53
2023-03-27T12:52:15.233Z,100655.53
2023-03-27T12:54:41.684Z,100654.72
2023-03-27T12:57:08.212Z,100659.03
2023-03-27T12:59:35.006Z,100662.31
2023-03-27T13:02:01.526Z,100659.66
2023-03-27T13:04:27.961Z,100652.63
2023-03-27T13:06:54.330Z,100658.38
2023-03-27T13:09:20.639Z,100673.63
2023-03-27T13:11:47.080Z,100669.91
2023-03-27T13:14:13.820Z,100671.56
2023-03-27T13:16:40.398Z,100669.47
2023-03-27T13:19:07.132Z,100674.47
2023-03-27T13:21:36.580Z,100673.47
2023-03-27T13:24:03.220Z,100677.78
2023-03-27T13:26:29.562Z,100677.16
2023-03-27T13:28:55.959Z,100677.53
2023-03-27T13:31:22.443Z,100672.94
2023-03-27T13:33:48.841Z,100672.09
2023-03-27T13:36:15.234Z,100670.69
2023-03-27T13:38:41.718Z,100672.31
2023-03-27T13:41:07.995Z,100672.09
2023-03-27T13:43:34.360Z,100684.47
2023-03-27T13:46:00.811Z,100682.19
2023-03-27T13:48:27.279Z,100679.31
2023-03-27T13:50:53.647Z,100685.66
2023-03-27T13:53:22.448Z,100689.38
2023-03-27T13:55:50.526Z,100692.16
2023-03-27T13:58:16.922Z,100680.50
2023-03-27T14:00:43.519Z,100683.03
2023-03-27T14:03:09.901Z,100678.72
2023-03-27T14:05:36.570Z,100682.88
2023-03-27T14:08:03.409Z,100679.06
2023-03-27T14:10:29.894Z,100671.22
2023-03-27T14:12:56.193Z,100672.22
2023-03-27T14:15:22.906Z,100677.03
2023-03-27T14:17:49.251Z,100680.09
2023-03-27T14:20:15.680Z,100681.16
2023-03-27T14:22:42.070Z,100687.72
2023-03-27T14:25:08.463Z,100686.72
2023-03-27T14:27:34.881Z,100705.06
2023-03-27T14:30:01.413Z,100732.75
2023-03-27T14:32:28.155Z,100737.47
2023-03-27T14:34:54.939Z,100760.16
2023-03-27T14:37:21.437Z,100774.41
2023-03-27T14:39:47.804Z,100773.13
2023-03-27T14:42:14.499Z,100765.84
2023-03-27T14:44:41.298Z,100760.97
2023-03-27T14:47:07.872Z,100760.63
2023-03-27T14:49:34.470Z,100759.34
2023-03-27T14:52:00.989Z,100753.81
2023-03-27T14:54:27.437Z,100754.03
2023-03-27T14:56:53.878Z,100758.34
2023-03-27T14:59:20.305Z,100757.53
2023-03-27T15:01:46.796Z,100748.91
2023-03-27T15:04:13.386Z,100759.44
2023-03-27T15:06:39.936Z,100754.84
2023-03-27T15:09:06.535Z,100758.16
2023-03-27T15:11:33.102Z,100758.16
2023-03-27T15:13:59.457Z,100765.94
2023-03-27T15:16:25.814Z,100763.09
2023-03-27T15:18:52.417Z,100753.84
2023-03-27T15:21:19.109Z,100759.22
2023-03-27T15:23:46.054Z,100767.09
2023-03-27T15:26:12.387Z,100767.09
2023-03-27T15:28:38.725Z,100760.91
2023-03-27T15:31:05.656Z,100763.22
2023-03-27T15:33:32.290Z,100756.44
2023-03-27T15:35:59.286Z,100759.94
2023-03-27T15:38:25.805Z,100764.25
2023-03-27T15:40:52.316Z,100769.63
2023-03-27T15:43:18.650Z,100769.00
2023-03-27T15:45:45.623Z,100774.16
2023-03-27T15:48:12.042Z,100764.25
2023-03-27T15:50:38.777Z,100767.38
2023-03-27T15:53:05.577Z,100768.41
2023-03-27T15:55:32.179Z,100788.25
2023-03-27T15:57:58.581Z,100782.88
2023-03-27T16:00:26.395Z,100779.16
2023-03-27T16:02:54.795Z,100775.41
2023-03-27T16:05:21.233Z,100778.72
2023-03-27T16:07:47.599Z,100777.69
2023-03-27T16:10:14.046Z,100785.09
2023-03-27T16:12:40.410Z,100787.56
2023-03-27T16:15:08.465Z,100786.53
2023-03-27T16:17:35.081Z,100786.31
2023-03-27T16:20:01.437Z,100789.63
2023-03-27T16:22:28.083Z,100791.47
2023-03-27T16:24:54.915Z,100797.66
2023-03-27T16:27:21.389Z,100796.81
2023-03-27T16:29:47.892Z,100810.03
2023-03-27T16:32:14.323Z,100813.53
2023-03-27T16:34:40.680Z,100815.19
2023-03-27T16:37:07.338Z,100812.72
2023-03-27T16:39:33.694Z,100815.38
2023-03-27T16:41:59.998Z,100816.22
2023-03-27T16:44:26.545Z,100816.00
2023-03-27T16:46:53.276Z,100823.00
2023-03-27T16:49:19.929Z,100826.75
2023-03-27T16:51:46.287Z,100831.84
2023-03-27T16:54:12.999Z,100827.31
2023-03-27T16:56:39.375Z,100826.28
2023-03-27T16:59:05.834Z,100832.47
2023-03-27T17:01:32.400Z,100831.66
2023-03-27T17:03:59.115Z,100833.28
2023-03-27T17:06:25.436Z,100834.31
2023-03-27T17:08:51.817Z,100847.75
2023-03-27T17:11:18.462Z,100856.63
2023-03-27T17:13:44.845Z,100854.97
2023-03-27T17:16:11.504Z,100855.78
2023-03-27T17:18:37.996Z,100856.25
2023-03-27T17:21:04.604Z,100857.88
2023-03-27T17:23:30.974Z,100857.25
2023-03-27T17:25:57.577Z,100857.47
2023-03-27T17:28:24.071Z,100862.25
2023-03-27T17:31:03.373Z,100867.41
2023-03-27T17:33:31.785Z,100872.13
2023-03-27T17:35:58.515Z,100881.41
2023-03-27T17:38:25.379Z,100890.69
2023-03-27T17:40:51.995Z,100892.13
2023-03-27T17:43:18.370Z,100903.25
2023-03-27T17:45:44.748Z,100913.59
2023-03-27T17:48:11.749Z,100919.41
2023-03-27T17:50:38.387Z,100925.34
2023-03-27T17:53:04.725Z,100941.44
2023-03-27T17:55:31.116Z,100941.25
2023-03-27T17:58:08.371Z,100957.56
2023-03-27T18:00:36.034Z,100952.19
2023-03-27T18:03:02.474Z,100958.38
2023-03-27T18:05:29.069Z,100952.63
2023-03-27T18:07:55.404Z,100937.13
2023-03-27T18:10:21.769Z,100941.25
2023-03-27T18:12:48.135Z,100941.88
2023-03-27T18:15:14.469Z,100939.19
2023-03-27T18:17:40.904Z,100940.63
2023-03-27T18:20:07.401Z,100938.59
2023-03-27T18:22:33.859Z,100949.75
2023-03-27T18:25:00.321Z,100944.34
2023-03-27T18:27:27.138Z,100952.84
2023-03-27T18:29:53.710Z,100949.13
2023-03-27T18:32:20.139Z,100945.78
2023-03-27T18:34:46.478Z,100949.53
2023-03-27T18:37:12.906Z,100948.69
2023-03-27T18:39:39.462Z,100947.00
2023-03-27T18:42:05.850Z,100950.53
2023-03-27T18:44:32.237Z,100944.75
2023-03-27T18:46:58.622Z,100953.81
2023-03-27T18:49:25.685Z,100947.22
2023-03-27T18:51:52.372Z,100941.44
2023-03-27T18:54:18.955Z,100946.75
2023-03-27T18:56:45.331Z,100938.09
2023-03-27T18:59:11.925Z,100934.44
2023-03-27T19:01:38.344Z,100942.06
2023-03-27T19:04:04.972Z,100931.59
2023-03-27T19:06:31.488Z,100930.50
2023-03-27T19:08:57.886Z,100927.47
2023-03-27T19:11:24.385Z,100931.84
2023-03-27T19:13:50.922Z,100929.31
2023-03-27T19:16:17.819Z,100928.28
2023-03-27T19:18:44.161Z,100921.88
2023-03-27T19:21:10.573Z,100933.06
2023-03-27T19:23:37.011Z,100935.84
2023-03-27T19:26:03.723Z,100920.25
2023-03-27T19:28:30.126Z,100927.03
2023-03-27T19:30:57.208Z,100923.38
2023-03-27T19:33:24.010Z,100927.56
2023-03-27T19:35:50.663Z,100922.03
2023-03-27T19:38:17.101Z,100929.44
2023-03-27T19:40:43.576Z,100918.88
2023-03-27T19:43:10.042Z,100913.88
2023-03-27T19:45:36.671Z,100916.28
2023-03-27T19:48:03.214Z,100900.72
2023-03-27T19:50:29.815Z,100901.28
2023-03-27T19:53:07.373Z,100905.50
2023-03-27T19:55:35.054Z,100898.84
2023-03-27T19:58:01.627Z,100898.78
2023-03-27T20:00:30.170Z,100892.31
2023-03-27T20:02:57.937Z,100900.75
2023-03-27T20:05:24.379Z,100901.41
2023-03-27T20:07:51.051Z,100910.50
2023-03-27T20:10:17.392Z,100908.47
2023-03-27T20:12:43.686Z,100904.38
2023-03-27T20:15:12.269Z,100908.31
2023-03-27T20:17:39.228Z,100903.16
2023-03-27T20:20:05.578Z,100897.78
2023-03-27T20:22:32.965Z,100890.78
2023-03-27T20:25:01.362Z,100899.91
2023-03-27T20:27:28.096Z,100893.88
2023-03-27T20:29:54.861Z,100895.53
2023-03-27T20:32:21.484Z,100893.28
2023-03-27T20:34:48.272Z,100887.09
2023-03-27T20:37:14.902Z,100886.06
2023-03-27T20:39:41.338Z,100889.78
2023-03-27T20:42:08.121Z,100880.72
2023-03-27T20:44:34.530Z,100885.44
2023-03-27T20:47:00.948Z,100876.56
2023-03-27T20:49:40.026Z,100883.88
2023-03-27T20:52:07.590Z,100881.34
2023-03-27T20:54:33.923Z,100875.13
2023-03-27T20:57:00.252Z,100879.50
2023-03-27T20:59:26.954Z,100887.53
2023-03-27T21:01:53.446Z,100881.78
2023-03-27T21:04:19.990Z,100879.09
2023-03-27T21:06:46.719Z,100869.41
2023-03-27T21:09:13.166Z,100871.50
2023-03-27T21:11:39.530Z,100862.25
2023-03-27T21:14:06.266Z,100872.72
2023-03-27T21:16:33.020Z,100865.72
2023-03-27T21:18:59.394Z,100862.44
2023-03-27T21:21:25.752Z,100871.16
2023-03-27T21:23:52.104Z,100862.03
2023-03-27T21:26:18.461Z,100859.00
2023-03-27T21:28:44.767Z,100851.78
2023-03-27T21:31:11.115Z,100855.03
2023-03-27T21:33:37.853Z,100869.78
2023-03-27T21:36:04.206Z,100849.69
2023-03-27T21:38:30.694Z,100861.56
2023-03-27T21:40:57.182Z,100851.31
2023-03-27T21:43:24.050Z,100850.50
2023-03-27T21:45:50.713Z,100862.34
2023-03-27T21:48:17.172Z,100847.72
2023-03-27T21:50:43.887Z,100856.16
2023-03-27T21:53:10.146Z,100847.88
2023-03-27T21:55:36.553Z,100848.53
2023-03-27T21:58:02.970Z,100851.09
2023-03-27T22:00:29.414Z,100847.59
2023-03-27T22:02:56.661Z,100839.53
2023-03-27T22:05:23.433Z,100839.69
2023-03-27T22:07:49.776Z,100837.91
2023-03-27T22:10:16.156Z,100835.28
2023-03-27T22:12:43.018Z,100838.78
2023-03-27T22:15:09.370Z,100837.16
2023-03-27T22:17:35.756Z,100844.59
2023-03-27T22:20:02.510Z,100846.00
2023-03-27T22:22:28.817Z,100846.84
2023-03-27T22:24:55.289Z,100848.53
2023-03-27T22:27:21.674Z,100855.75
2023-03-27T22:29:48.002Z,100851.63
2023-03-27T22:32:14.664Z,100852.47
2023-03-27T22:34:41.005Z,100856.19
2023-03-27T22:37:07.903Z,100846.63
2023-03-27T22:39:34.623Z,100849.16
2023-03-27T22:42:01.640Z,100853.72
2023-03-27T22:44:28.143Z,100848.31
2023-03-27T22:46:54.822Z,100857.66
2023-03-27T22:49:21.426Z,100846.69
2023-03-27T22:51:47.802Z,100844.25
2023-03-27T22:54:14.360Z,100853.78
2023-03-27T22:56:41.243Z,100857.03
2023-03-27T22:59:08.301Z,100855.84
2023-03-27T23:01:34.735Z,100859.97
2023-03-27T23:04:01.278Z,100864.34
2023-03-27T23:06:27.696Z,100866.66
2023-03-27T23:08:54.167Z,100861.50
2023-03-27T23:11:20.610Z,100856.59
2023-03-27T23:13:47.095Z,100861.28
2023-03-27T23:16:13.602Z,100869.28
2023-03-27T23:18:40.245Z,100875.69
2023-03-27T23:21:06.628Z,100869.53
2023-03-27T23:23:33.268Z,100876.31
2023-03-27T23:25:59.930Z,100880.88
2023-03-27T23:28:26.609Z,100886.03
2023-03-27T23:30:52.994Z,100885.25
2023-03-27T23:33:19.835Z,100881.94
2023-03-27T23:35:46.166Z,100887.28
2023-03-27T23:38:12.564Z,100876.56
2023-03-27T23:40:38.938Z,100875.94
2023-03-27T23:43:05.235Z,100884.25
2023-03-27T23:45:32.156Z,100874.13
2023-03-27T23:47:58.561Z,100861.16
2023-03-27T23:50:25.060Z,100869.56
2023-03-27T23:52:51.450Z,100865.94
2023-03-27T23:55:18.299Z,100863.44
2023-03-27T23:57:44.778Z,100854.78
